• Join FlightAware (Why Join?)
  • Login
  • US Flag 
08:31PM EDT


 

Airport Tracker/Info


-or-


 

Live Flight TrackerFlight Track Log ✈ KCE2 ✈ 20-May-2013 ✈ CYSJ - KPSM

Flight Track Log - Related Links

Times and Time Zones

All times are in EDT time to prevent confusion due to time zone crossing. See the KCE2 flight status page for this flight to view local times or setup timezone preferences in your user account.

Time Position Orientation Groundspeed Altitude Reporting Facility
EDT Latitude Longitude Course Direction KTS MPH feet Rate Location/Type
04:31PM 45.1940 -66.0700 240° Southwest 332 382 12,000  Level FlightAware
04:33PM 45.1410 -66.1990 240° Southwest 359 413 15,800 3,540 Climbing FlightAware
04:34PM 45.0860 -66.3330 240° Southwest 362 417 19,700 3,540 Climbing FlightAware
04:35PM 45.0130 -66.5080 240° Southwest 353 406 24,700 2,940 Climbing FlightAware
04:36PM 44.9550 -66.6470 240° Southwest 370 426 27,400 1,620 Climbing FlightAware
04:37PM 44.8880 -66.8070 239° Southwest 419 482 28,500 1,200 Climbing FlightAware
04:39PM 44.8180 -66.9740 239° Southwest 438 504 30,200 1,380 Climbing FlightAware
04:40PM 44.7280 -67.1860 239° Southwest 446 513 32,100 1,380 Climbing FlightAware
04:41PM 44.6840 -67.2880 239° Southwest 447 514 33,100 1,380 Climbing FlightAware
04:41PM 44.6410 -67.3890 239° Southwest 446 513 34,000 1,320 Climbing FlightAware
04:42PM 44.6040 -67.4750 239° Southwest 445 512 34,800 1,320 Climbing FlightAware
04:43PM 44.5570 -67.5860 239° Southwest 444 511 35,800 960 Climbing FlightAware
04:43PM 44.5230 -67.6620 238° Southwest 445 512 36,000 120 Climbing FlightAware
04:44PM 44.4820 -67.7590 239° Southwest 441 507 36,000  Level FlightAware
04:44PM 44.4430 -67.8470 238° Southwest 441 507 36,000  Level FlightAware
04:45PM 44.4030 -67.9400 239° Southwest 440 506 36,000  Level FlightAware
04:46PM 44.3590 -68.0400 238° Southwest 440 506 36,000  Level FlightAware
04:46PM 44.3170 -68.1340 238° Southwest 439 505 36,000 -120 Level FlightAware
04:47PM 44.2730 -68.2340 238° Southwest 442 509 35,900 -720 Descending FlightAware
04:48PM 44.2410 -68.3080 239° Southwest 447 514 35,200 -1,380 Descending FlightAware
04:48PM 44.1910 -68.4210 238° Southwest 448 516 34,200 -1,440 Descending FlightAware
04:49PM 44.1510 -68.5110 238° Southwest 451 519 33,300 -1,500 Descending FlightAware
04:50PM 44.1020 -68.6200 238° Southwest 447 514 32,200 -1,500 Descending FlightAware
04:50PM 44.0760 -68.6790 238° Southwest 450 518 31,600 -960 Descending FlightAware
04:51PM 44.0260 -68.7890 238° Southwest 453 521 31,100 -420 Descending FlightAware
04:51PM 43.9980 -68.8520 238° Southwest 453 521 31,100 -1,980 Level FlightAware
04:52PM 43.9380 -68.9830 238° Southwest 459 528 28,500 -2,520 Descending FlightAware
04:53PM 43.8900 -69.0910 238° Southwest 456 525 27,400 -840 Descending FlightAware
04:53PM 43.8520 -69.1710 237° Southwest 456 525 27,400 -1,440 Level FlightAware
04:54PM 43.8060 -69.2740 238° Southwest 438 504 25,500 -1,380 Descending FlightAware
04:55PM 43.7620 -69.3710 238° Southwest 438 504 25,500  Level FlightAware
04:56PM 43.7160 -69.4720 238° Southwest 438 504 25,500 -3,060 Level FlightAware
04:56PM 43.6650 -69.5800 237° Southwest 396 456 21,200 -4,380 Descending FlightAware
04:57PM 43.6210 -69.6740 237° Southwest 385 443 19,700 -2,040 Descending FlightAware
04:58PM 43.5930 -69.7360 238° Southwest 377 434 18,700 -1,080 Descending FlightAware
04:58PM 43.5600 -69.8060 237° Southwest 377 434 18,500 -2,100 Descending FlightAware
04:59PM 43.5280 -69.8750 237° Southwest 371 427 16,300 -3,240 Descending FlightAware
04:59PM 43.5000 -69.9340 237° Southwest 368 423 15,300 -2,100 Descending FlightAware
05:00PM 43.4540 -70.0330 237° Southwest 363 418 13,500 -2,160 Descending FlightAware
05:01PM 43.4080 -70.1300 237° Southwest 350 403 11,700 -1,860 Descending FlightAware
05:01PM 43.3810 -70.1880 237° Southwest 320 368 10,900 -1,680 Descending FlightAware
05:02PM 43.3560 -70.2400 237° Southwest 306 352 9,900 -2,040 Descending FlightAware
05:02PM 43.3440 -70.2650 237° Southwest 303 349 9,400 -2,100 Descending FlightAware
05:03PM 43.3260 -70.3040 238° Southwest 300 345 8,500 -2,400 Descending FlightAware
05:03PM 43.3140 -70.3290 237° Southwest 300 345 7,800 -2,400 Descending FlightAware
05:03PM 43.2910 -70.3780 237° Southwest 297 342 6,700 -1,980 Descending FlightAware
05:04PM 43.2740 -70.4140 237° Southwest 287 330 6,000 -1,800 Descending FlightAware
05:04PM 43.2530 -70.4580 237° Southwest 277 319 5,100 -2,040 Descending FlightAware
05:05PM 43.2310 -70.5030 236° Southwest 275 316 4,000 -1,800 Descending FlightAware
05:05PM 43.2180 -70.5290 236° Southwest 273 314 3,600 -540 Descending FlightAware
05:06PM 43.1980 -70.5610 229° Southwest 273 314 3,600 -1,080 Level FlightAware
05:06PM 43.1872 -70.5636 229° Southwest 285 328 2,900 -1,320 Descending Boston Center
05:07PM 43.1136 -70.6483 220° Southwest 289 333 2,000 -600 Descending Boston Center
05:07PM 43.1000 -70.6833 242° Southwest 262 302 2,000 -180 Level KA90
05:08PM 43.0667 -70.7500 236° Southwest 202 232 1,800 -660 Descending KA90
05:09PM 43.0500 -70.8000 245° Southwest 155 178 700 2,700 Descending KA90
05:12PM 43.0717 -70.9194 284° West 124 143 11,000 4,140 Climbing Boston Center
05:14PM 43.0667 -70.8167 90° East  Level FlightAware Approximate
05:21PM 43.0779 -70.8233 90° East  Level Estimated
05:22PM 43.0779 -70.8233 90° East  Level Estimated
05:23PM 43.0779 -70.8233 90° East  Level Estimated
05:24PM 43.0779 -70.8233 90° East  Level Estimated
05:25PM 43.0779 -70.8233 90° East  Level Estimated